Terminal Aerodrome Forecast
Issued by NWS

Home | Current Version | Previous Version | Text Only | Print | Product List | Glossary On
Versions: 1 2 3 4 5 6 7 8 9 10 11 12 13 14
152
FTUS43 KDLH 161927 AAA
TAFBRD
TAF AMD
KBRD 161927Z 1619/1718 33018KT P6SM BKN035
     FM162300 35010KT P6SM SCT035 SCT080
     FM170300 36005KT P6SM FEW150=

USA.gov is the U.S. government's official web portal to all federal, state and local government web resources and services.